Time;durP1;ratioP1;P1;durP2;ratioP2;P2;SDS_P1;SDS_P2;PMS_P1;PMS_P2;Temp;Humidity;BMP_temperature;BMP_pressure;BME280_temperature;BME280_humidity;BME280_pressure;Samples;Min_cycle;Max_cycle;Signal;HPM_P1;HPM_P2
2023/12/04 00:01:15;;;;;;;;;;;;;;;-1.35;80.53;101568.29;106911;1260;61153;-84
2023/12/04 00:03:45;;;;;;;;;;;;;;;-1.42;80.45;101568.86;106759;1261;74812;-84
2023/12/04 00:06:12;;;;;;;;;;;;;;;-1.46;80.51;101570.59;106845;1254;125069;-84
2023/12/04 00:08:39;;;;;;;;;;;;;;;-1.49;80.58;101572.86;106834;1254;73221;-84
2023/12/04 00:11:06;;;;;;;;;;;;;;;-1.52;80.78;101572.66;106824;1259;124837;-84
2023/12/04 00:13:33;;;;;;;;;;;;;;;-1.55;80.73;101574.80;106751;1258;61184;-84
2023/12/04 00:15:59;;;;;;;;;;;;;;;-1.57;80.81;101574.83;106787;1259;74405;-85
2023/12/04 00:18:26;;;;;;;;;;;;;;;-1.57;80.75;101577.93;106656;1257;124980;-84
2023/12/04 00:20:53;;;;;;;;;;;;;;;-1.55;80.97;101580.11;106790;1254;72637;-85
2023/12/04 00:23:20;;;;;;;;;;;;;;;-1.55;80.88;101582.55;106842;1259;124522;-84
2023/12/04 00:25:47;;;;;;;;;;;;;;;-1.60;80.73;101583.35;106933;1254;61315;-84
2023/12/04 00:28:13;;;;;;;;;;;;;;;-1.70;80.44;101582.64;106732;1255;73474;-84
2023/12/04 00:30:40;;;;;;;;;;;;;;;-1.80;80.42;101575.23;106701;1254;124313;-84
2023/12/04 00:33:07;;;;;;;;;;;;;;;-1.89;80.38;101579.25;106701;1254;72383;-83
2023/12/04 00:35:33;;;;;;;;;;;;;;;-1.99;80.34;101579.23;106537;1261;124121;-83
2023/12/04 00:38:00;;;;;;;;;;;;;;;-2.09;80.35;101579.58;106901;1260;61266;-83
2023/12/04 00:40:27;;;;;;;;;;;;;;;-2.18;80.27;101581.70;106954;1254;74686;-84
2023/12/04 00:42:53;;;;;;;;;;;;;;;-2.26;80.35;101584.89;106777;1254;124484;-84
2023/12/04 00:45:20;;;;;;;;;;;;;;;-2.36;80.49;101587.48;107004;1254;71660;-84
2023/12/04 00:47:47;;;;;;;;;;;;;;;-2.44;80.50;101590.73;106899;1255;124769;-84
2023/12/04 00:50:14;;;;;;;;;;;;;;;-2.52;80.50;101590.48;106998;1255;60053;-84
2023/12/04 00:52:40;;;;;;;;;;;;;;;-2.61;80.53;101597.08;106813;1254;124146;-84
2023/12/04 00:55:07;;;;;;;;;;;;;;;-2.67;80.80;101600.84;106793;1254;65526;-84
2023/12/04 00:57:34;;;;;;;;;;;;;;;-2.73;80.85;101602.86;106845;1254;72092;-83
2023/12/04 01:00:01;;;;;;;;;;;;;;;-2.77;80.98;101606.31;106793;1254;124182;-83
2023/12/04 01:02:27;;;;;;;;;;;;;;;-2.80;81.05;101612.15;106792;1254;60463;-83
2023/12/04 01:04:55;;;;;;;;;;;;;;;-2.83;81.08;101611.33;106676;1260;124553;-83
2023/12/04 01:07:21;;;;;;;;;;;;;;;-2.87;81.11;101613.57;106826;1254;64737;-84
2023/12/04 01:09:48;;;;;;;;;;;;;;;-2.88;81.19;101615.74;106848;1257;70832;-84
2023/12/04 01:12:15;;;;;;;;;;;;;;;-2.83;81.38;101615.29;106667;1254;124158;-83
2023/12/04 01:14:42;;;;;;;;;;;;;;;-2.75;81.69;101617.60;106686;1254;61273;-83
2023/12/04 01:17:08;;;;;;;;;;;;;;;-2.65;81.84;101621.44;106701;1259;124441;-84
2023/12/04 01:19:35;;;;;;;;;;;;;;;-2.56;81.79;101627.11;106736;1259;66236;-83
2023/12/04 01:22:02;;;;;;;;;;;;;;;-2.46;81.99;101625.55;106648;1260;71345;-83
2023/12/04 01:24:28;;;;;;;;;;;;;;;-2.36;82.11;101627.17;106686;1257;124258;-83
2023/12/04 01:26:55;;;;;;;;;;;;;;;-2.27;82.05;101626.27;106854;1257;61276;-83
2023/12/04 01:29:22;;;;;;;;;;;;;;;-2.18;82.14;101627.55;106817;1259;124992;-83
2023/12/04 01:31:48;;;;;;;;;;;;;;;-2.10;81.98;101628.27;106979;1254;65030;-83
2023/12/04 01:34:15;;;;;;;;;;;;;;;-2.02;82.01;101629.69;106968;1254;72671;-82
2023/12/04 01:36:42;;;;;;;;;;;;;;;-1.96;81.86;101626.48;106800;1257;124694;-82
2023/12/04 01:39:08;;;;;;;;;;;;;;;-1.88;82.03;101626.69;106922;1260;61221;-83
2023/12/04 01:41:35;;;;;;;;;;;;;;;-1.81;81.91;101628.44;106741;1257;124742;-83
2023/12/04 01:44:02;;;;;;;;;;;;;;;-1.76;81.71;101623.38;106849;1254;65163;-83
2023/12/04 01:46:29;;;;;;;;;;;;;;;-1.70;81.78;101625.25;106864;1258;71796;-83
2023/12/04 01:48:56;;;;;;;;;;;;;;;-1.64;81.66;101631.11;106806;1254;124678;-83
2023/12/04 01:51:23;;;;;;;;;;;;;;;-1.58;81.81;101629.61;106902;1257;61156;-83
2023/12/04 01:53:50;;;;;;;;;;;;;;;-1.53;81.58;101631.59;106633;1257;125531;-83
2023/12/04 01:56:17;;;;;;;;;;;;;;;-1.49;81.48;101627.58;106910;1254;64749;-83
2023/12/04 01:58:43;;;;;;;;;;;;;;;-1.45;81.57;101624.73;106786;1254;124854;-82
2023/12/04 02:01:10;;;;;;;;;;;;;;;-1.39;81.41;101622.86;106760;1254;59285;-83
2023/12/04 02:03:37;;;;;;;;;;;;;;;-1.36;81.47;101620.02;106968;1254;61234;-84
2023/12/04 02:06:05;;;;;;;;;;;;;;;-1.31;81.45;101618.46;106395;1258;124583;-83
2023/12/04 02:08:32;;;;;;;;;;;;;;;-1.25;81.59;101617.33;106697;1261;65263;-84
2023/12/04 02:10:59;;;;;;;;;;;;;;;-1.21;81.36;101615.27;106774;1254;125218;-82
2023/12/04 02:13:26;;;;;;;;;;;;;;;-1.16;81.33;101620.47;106757;1256;59561;-82
2023/12/04 02:15:53;;;;;;;;;;;;;;;-1.12;81.15;101622.38;106107;1254;61263;-82
2023/12/04 02:18:20;;;;;;;;;;;;;;;-1.10;81.10;101624.42;105960;1260;124886;-82
2023/12/04 02:20:47;;;;;;;;;;;;;;;-1.11;80.97;101624.88;106203;1258;66706;-83
2023/12/04 02:23:13;;;;;;;;;;;;;;;-1.11;80.93;101629.34;106131;1254;125190;-82
2023/12/04 02:25:40;;;;;;;;;;;;;;;-1.08;81.00;101628.39;106279;1254;61729;-83
2023/12/04 02:28:08;;;;;;;;;;;;;;;-1.06;81.01;101628.23;106273;1254;62171;-83
2023/12/04 02:30:36;;;;;;;;;;;;;;;-1.03;81.06;101629.02;106206;1259;124666;-83
2023/12/04 02:33:04;;;;;;;;;;;;;;;-1.01;80.89;101628.73;106295;1260;65302;-83
2023/12/04 02:35:32;;;;;;;;;;;;;;;-1.00;80.85;101628.90;107465;1255;124717;-83
2023/12/04 02:37:58;;;;;;;;;;;;;;;-1.01;80.77;101628.37;106236;1254;61352;-82
2023/12/04 02:40:25;;;;;;;;;;;;;;;-1.02;80.56;101629.67;106354;1254;61601;-83
2023/12/04 02:42:52;;;;;;;;;;;;;;;-1.04;80.43;101628.90;106120;1254;125211;-83
2023/12/04 02:45:18;;;;;;;;;;;;;;;-1.06;80.36;101632.02;106292;1258;66310;-83
2023/12/04 02:47:45;;;;;;;;;;;;;;;-1.11;80.17;101631.59;106168;1254;124451;-83
2023/12/04 02:50:12;;;;;;;;;;;;;;;-1.20;79.92;101633.27;106100;1254;61330;-84
2023/12/04 02:52:38;;;;;;;;;;;;;;;-1.30;79.96;101637.34;106043;1254;123054;-83
2023/12/04 02:55:05;;;;;;;;;;;;;;;-1.41;79.77;101631.65;105992;1254;73292;-83
2023/12/04 02:57:32;;;;;;;;;;;;;;;-1.52;79.64;101632.38;106237;1258;66038;-83
2023/12/04 02:59:58;;;;;;;;;;;;;;;-1.65;79.44;101631.38;106167;1256;124418;-83
2023/12/04 03:02:25;;;;;;;;;;;;;;;-1.79;79.52;101637.64;106279;1254;61263;-83
2023/12/04 03:04:52;;;;;;;;;;;;;;;-1.90;79.59;101639.90;106161;1254;124199;-82
2023/12/04 03:07:20;;;;;;;;;;;;;;;-1.97;79.74;101640.46;106353;1258;74662;-83
2023/12/04 03:09:46;;;;;;;;;;;;;;;-2.06;79.68;101640.34;106181;1257;64625;-83
2023/12/04 03:12:13;;;;;;;;;;;;;;;-2.14;79.53;101642.73;106101;1254;124029;-83
2023/12/04 03:14:40;;;;;;;;;;;;;;;-2.24;79.46;101643.20;106233;1258;61266;-83
2023/12/04 03:17:07;;;;;;;;;;;;;;;-2.37;79.36;101645.64;106110;1260;124897;-83
2023/12/04 03:19:34;;;;;;;;;;;;;;;-2.51;79.32;101639.05;106279;1254;74631;-83
2023/12/04 03:22:01;;;;;;;;;;;;;;;-2.64;79.23;101643.03;106203;1256;67809;-83
2023/12/04 03:24:27;;;;;;;;;;;;;;;-2.77;79.32;101643.17;105935;1254;124090;-84
2023/12/04 03:26:54;;;;;;;;;;;;;;;-2.90;79.28;101648.34;106251;1259;61213;-83
2023/12/04 03:29:21;;;;;;;;;;;;;;;-3.02;79.32;101651.87;106196;1254;124497;-82
2023/12/04 03:31:48;;;;;;;;;;;;;;;-3.16;79.28;101654.21;106705;1256;73419;-83
2023/12/04 03:34:14;;;;;;;;;;;;;;;-3.27;79.41;101650.89;106698;1257;64945;-83
2023/12/04 03:36:41;;;;;;;;;;;;;;;-3.37;79.52;101654.76;106127;1260;124899;-82
2023/12/04 03:39:08;;;;;;;;;;;;;;;-3.46;79.62;101661.63;106123;1256;61467;-83
2023/12/04 03:41:34;;;;;;;;;;;;;;;-3.55;79.65;101665.73;105868;1256;124609;-82
2023/12/04 03:44:01;;;;;;;;;;;;;;;-3.63;79.76;101665.70;106212;1254;74662;-82
2023/12/04 03:46:28;;;;;;;;;;;;;;;-3.71;79.86;101669.55;106433;1256;65809;-82
2023/12/04 03:48:55;;;;;;;;;;;;;;;-3.78;79.85;101670.77;105923;1260;124002;-83
2023/12/04 03:51:21;;;;;;;;;;;;;;;-3.86;79.91;101670.83;106106;1260;61318;-83
2023/12/04 03:53:48;;;;;;;;;;;;;;;-3.93;80.03;101668.97;106235;1254;124388;-84
2023/12/04 03:56:15;;;;;;;;;;;;;;;-4.00;80.08;101671.06;106182;1254;74709;-83
2023/12/04 03:58:41;;;;;;;;;;;;;;;-4.07;80.24;101671.92;106123;1258;124494;-82
2023/12/04 04:01:08;;;;;;;;;;;;;;;-4.14;80.17;101669.86;106123;1257;71390;-85
2023/12/04 04:03:35;;;;;;;;;;;;;;;-4.20;80.20;101666.48;106159;1258;61196;-84
2023/12/04 04:06:01;;;;;;;;;;;;;;;-4.25;80.35;101663.58;106766;1254;125385;-83
2023/12/04 04:08:28;;;;;;;;;;;;;;;-4.29;80.41;101669.35;106879;1259;74668;-84
2023/12/04 04:10:55;;;;;;;;;;;;;;;-4.32;80.45;101672.53;106838;1254;124040;-83
2023/12/04 04:13:21;;;;;;;;;;;;;;;-4.35;80.42;101672.04;106796;1254;71389;-83
2023/12/04 04:15:48;;;;;;;;;;;;;;;-4.39;80.54;101675.06;106838;1254;61177;-83
2023/12/04 04:18:15;;;;;;;;;;;;;;;-4.43;80.57;101675.05;106184;1255;125048;-83
2023/12/04 04:20:41;;;;;;;;;;;;;;;-4.45;80.64;101674.15;106257;1258;72392;-82
2023/12/04 04:23:08;;;;;;;;;;;;;;;-4.45;80.64;101674.63;105944;1257;125128;-82
2023/12/04 04:25:35;;;;;;;;;;;;;;;-4.47;80.71;101680.13;106149;1254;71364;-83
2023/12/04 04:28:01;;;;;;;;;;;;;;;-4.48;80.81;101680.01;106231;1254;61350;-77
2023/12/04 04:30:29;;;;;;;;;;;;;;;-4.50;80.90;101682.02;106727;1254;125188;-77
2023/12/04 04:32:56;;;;;;;;;;;;;;;-4.52;80.88;101684.64;106781;1254;74779;-76
2023/12/04 04:35:22;;;;;;;;;;;;;;;-4.54;80.89;101684.27;106023;1255;124792;-76
2023/12/04 04:37:49;;;;;;;;;;;;;;;-4.56;80.96;101681.80;106113;1254;72745;-76
2023/12/04 04:40:16;;;;;;;;;;;;;;;-4.57;80.89;101685.80;106120;1258;61315;-76
2023/12/04 04:42:43;;;;;;;;;;;;;;;-4.59;80.96;101686.11;105949;1259;125161;-76
2023/12/04 04:45:10;;;;;;;;;;;;;;;-4.60;80.91;101687.16;106035;1254;73357;-77
2023/12/04 04:47:36;;;;;;;;;;;;;;;-4.61;81.00;101687.79;105821;1257;125310;-76
2023/12/04 04:50:03;;;;;;;;;;;;;;;-4.62;81.08;101686.85;106040;1254;71374;-78
2023/12/04 04:52:30;;;;;;;;;;;;;;;-4.63;81.10;101685.22;106063;1254;61597;-77
2023/12/04 04:54:57;;;;;;;;;;;;;;;-4.64;81.09;101683.58;108890;1254;124365;-77
2023/12/04 04:57:23;;;;;;;;;;;;;;;-4.65;81.18;101681.91;109140;1254;74399;-76
2023/12/04 04:59:50;;;;;;;;;;;;;;;-4.66;81.03;101686.45;108990;1253;124781;-77
2023/12/04 05:02:17;;;;;;;;;;;;;;;-4.66;81.19;101684.05;109066;1254;72703;-76
2023/12/04 05:04:43;;;;;;;;;;;;;;;-4.66;81.11;101681.80;108911;1254;125031;-77
2023/12/04 05:07:10;;;;;;;;;;;;;;;-4.67;81.09;101686.66;108421;1255;60107;-76
2023/12/04 05:09:37;;;;;;;;;;;;;;;-4.68;81.08;101684.02;106625;1257;74605;-76
2023/12/04 05:12:23;;;;;;;;;;;;;;;-4.69;81.07;101684.45;105895;1259;124946;-76
2023/12/04 05:14:50;;;;;;;;;;;;;;;-4.69;81.04;101676.58;105911;1256;72777;-76
2023/12/04 05:17:16;;;;;;;;;;;;;;;-4.71;80.99;101675.20;105988;1257;125163;-77
2023/12/04 05:19:43;;;;;;;;;;;;;;;-4.73;81.09;101681.34;106497;1254;61301;-75
2023/12/04 05:22:10;;;;;;;;;;;;;;;-4.75;81.16;101681.27;105836;1256;73889;-76
2023/12/04 05:24:36;;;;;;;;;;;;;;;-4.75;81.12;101680.36;105935;1258;125349;-76
2023/12/04 05:27:03;;;;;;;;;;;;;;;-4.76;81.22;101683.20;105903;1256;71348;-76
2023/12/04 05:29:30;;;;;;;;;;;;;;;-4.76;81.08;101680.45;106157;1254;124977;-76
2023/12/04 05:31:57;;;;;;;;;;;;;;;-4.77;81.09;101682.61;106351;1254;61171;-86
2023/12/04 05:34:24;;;;;;;;;;;;;;;-4.77;81.19;101676.55;106417;1253;73681;-84
2023/12/04 05:36:50;;;;;;;;;;;;;;;-4.79;81.20;101675.15;106005;1255;124779;-86
2023/12/04 05:39:17;;;;;;;;;;;;;;;-4.79;81.18;101677.39;106150;1260;72947;-85
2023/12/04 05:41:44;;;;;;;;;;;;;;;-4.80;81.22;101679.69;106174;1254;124795;-84
2023/12/04 05:44:10;;;;;;;;;;;;;;;-4.82;81.16;101684.33;106430;1257;61155;-83
2023/12/04 05:46:37;;;;;;;;;;;;;;;-4.84;81.20;101687.02;106914;1253;125308;-87
2023/12/04 05:49:04;;;;;;;;;;;;;;;-4.86;81.11;101689.77;106826;1255;66332;-84
2023/12/04 05:51:30;;;;;;;;;;;;;;;-4.87;81.16;101689.82;106868;1254;71096;-83
2023/12/04 05:53:57;;;;;;;;;;;;;;;-4.89;80.99;101692.73;106716;1254;124768;-83
2023/12/04 05:56:24;;;;;;;;;;;;;;;-4.91;80.86;101689.95;106765;1254;61146;-83
2023/12/04 05:58:50;;;;;;;;;;;;;;;-4.92;80.93;101688.11;106735;1256;125408;-83
2023/12/04 06:01:17;;;;;;;;;;;;;;;-4.93;81.10;101684.05;106624;1254;66198;-81
2023/12/04 06:03:44;;;;;;;;;;;;;;;-4.95;81.04;101685.29;106858;1254;73753;-83
2023/12/04 06:06:10;;;;;;;;;;;;;;;-4.96;81.04;101681.59;106845;1254;125684;-82
2023/12/04 06:08:37;;;;;;;;;;;;;;;-4.95;81.10;101682.64;106730;1254;61264;-81
2023/12/04 06:11:04;;;;;;;;;;;;;;;-4.95;81.20;101678.88;106658;1254;125076;-82
2023/12/04 06:13:30;;;;;;;;;;;;;;;-4.96;81.29;101671.09;106828;1254;64195;-81
2023/12/04 06:15:57;;;;;;;;;;;;;;;-4.96;81.25;101666.83;106824;1255;72498;-82
2023/12/04 06:18:24;;;;;;;;;;;;;;;-4.96;81.38;101661.67;106772;1254;124882;-84
2023/12/04 06:20:51;;;;;;;;;;;;;;;-4.96;81.49;101674.34;106902;1254;61292;-83
2023/12/04 06:23:19;;;;;;;;;;;;;;;-4.95;81.50;101676.48;106259;1258;124838;-83
2023/12/04 06:25:46;;;;;;;;;;;;;;;-4.98;81.26;101679.58;107131;1254;65590;-82
2023/12/04 06:28:13;;;;;;;;;;;;;;;-5.02;81.29;101686.24;106840;1256;72501;-81
2023/12/04 06:30:39;;;;;;;;;;;;;;;-5.04;81.34;101690.09;106090;1254;124547;-82
2023/12/04 06:33:07;;;;;;;;;;;;;;;-5.08;81.28;101683.55;106398;1254;60139;-82
2023/12/04 06:35:35;;;;;;;;;;;;;;;-5.11;81.24;101682.23;106209;1257;124429;-82
2023/12/04 06:38:05;;;;;;;;;;;;;;;-5.13;81.30;101688.01;106477;1254;65007;-82
2023/12/04 06:40:32;;;;;;;;;;;;;;;-5.14;81.39;101689.30;106605;1257;71536;-81
2023/12/04 06:43:00;;;;;;;;;;;;;;;-5.15;81.54;101688.70;106491;1256;124454;-82
2023/12/04 06:45:27;;;;;;;;;;;;;;;-5.15;81.58;101682.28;106336;1255;61246;-82
2023/12/04 06:47:53;;;;;;;;;;;;;;;-5.18;81.62;101679.52;106350;1254;125129;-82
2023/12/04 06:50:20;;;;;;;;;;;;;;;-5.18;81.75;101685.59;106576;1259;66296;-82
2023/12/04 06:52:47;;;;;;;;;;;;;;;-5.18;81.67;101691.97;106002;1256;243166;-78
2023/12/04 06:55:14;;;;;;;;;;;;;;;-5.20;81.75;101694.36;107210;1253;59268;-75
2023/12/04 06:57:40;;;;;;;;;;;;;;;-5.21;81.52;101689.91;106399;1254;61631;-76
2023/12/04 07:00:08;;;;;;;;;;;;;;;-5.23;81.67;101684.95;106355;1254;124416;-76
2023/12/04 07:02:34;;;;;;;;;;;;;;;-5.22;81.77;101689.15;106191;1259;66678;-77
2023/12/04 07:05:03;;;;;;;;;;;;;;;-5.19;81.98;101689.10;106792;1254;124624;-77
2023/12/04 07:07:29;;;;;;;;;;;;;;;-5.17;82.12;101689.51;107161;1258;61252;-76
2023/12/04 07:09:56;;;;;;;;;;;;;;;-5.14;82.03;101690.79;106313;1256;61406;-76
2023/12/04 07:12:23;;;;;;;;;;;;;;;-5.11;82.26;101691.31;105899;1255;124201;-76
2023/12/04 07:14:49;;;;;;;;;;;;;;;-5.06;82.34;101691.77;106065;1260;64801;-76
2023/12/04 07:17:16;;;;;;;;;;;;;;;-4.99;82.43;101693.34;106066;1254;124249;-76
2023/12/04 07:19:43;;;;;;;;;;;;;;;-4.89;82.69;101694.58;106152;1254;61308;-76
2023/12/04 07:22:09;;;;;;;;;;;;;;;-4.73;82.97;101694.34;106094;1256;61280;-77
2023/12/04 07:24:36;;;;;;;;;;;;;;;-4.52;83.28;101696.02;106105;1257;124167;-77
2023/12/04 07:27:03;;;;;;;;;;;;;;;-4.30;83.53;101700.48;106164;1254;66526;-77
2023/12/04 07:29:30;;;;;;;;;;;;;;;-4.08;83.62;101699.00;106014;1255;124483;-76
2023/12/04 07:31:57;;;;;;;;;;;;;;;-3.90;83.60;101703.00;106117;1254;61396;-76
2023/12/04 07:34:23;;;;;;;;;;;;;;;-3.72;83.63;101704.63;106056;1254;61440;-75
2023/12/04 07:36:50;;;;;;;;;;;;;;;-3.55;83.55;101696.50;105867;1259;124921;-76
2023/12/04 07:39:17;;;;;;;;;;;;;;;-3.37;83.62;101693.33;106114;1255;66015;-76
2023/12/04 07:41:44;;;;;;;;;;;;;;;-3.20;83.67;101694.80;106016;1254;124870;-76
2023/12/04 07:44:10;;;;;;;;;;;;;;;-3.05;83.61;101690.09;105983;1254;61316;-77
2023/12/04 07:46:37;;;;;;;;;;;;;;;-2.88;83.61;101693.37;105692;1255;125215;-76
2023/12/04 07:49:04;;;;;;;;;;;;;;;-2.72;83.57;101683.19;106098;1256;73332;-75
2023/12/04 07:51:30;;;;;;;;;;;;;;;-2.56;83.68;101687.78;106153;1255;64754;-76
2023/12/04 07:53:57;;;;;;;;;;;;;;;-2.38;83.71;101685.23;106021;1254;125071;-78
2023/12/04 07:56:24;;;;;;;;;;;;;;;-2.24;83.71;101683.06;106580;1258;61217;-76
2023/12/04 07:58:51;;;;;;;;;;;;;;;-2.08;83.79;101683.64;106074;1257;124951;-77
2023/12/04 08:01:17;;;;;;;;;;;;;;;-1.92;83.70;101681.67;106134;1257;75025;-77
2023/12/04 08:03:44;;;;;;;;;;;;;;;-1.76;83.95;101684.00;106120;1254;66208;-78
2023/12/04 08:06:11;;;;;;;;;;;;;;;-1.59;83.92;101682.71;106020;1259;124543;-78
2023/12/04 08:08:37;;;;;;;;;;;;;;;-1.43;83.67;101683.45;106111;1253;61177;-78
2023/12/04 08:11:04;;;;;;;;;;;;;;;-1.29;83.78;101683.77;106602;1256;124990;-78
2023/12/04 08:13:31;;;;;;;;;;;;;;;-1.17;83.50;101688.64;106514;1253;73462;-77
2023/12/04 08:15:57;;;;;;;;;;;;;;;-1.04;83.65;101684.05;106080;1257;65247;-77
2023/12/04 08:18:24;;;;;;;;;;;;;;;-0.93;83.35;101685.70;105970;1256;124651;-76
2023/12/04 08:20:51;;;;;;;;;;;;;;;-0.81;83.36;101685.20;106112;1258;61272;-77
2023/12/04 08:23:18;;;;;;;;;;;;;;;-0.70;83.27;101685.75;105998;1254;124758;-78
2023/12/04 08:25:45;;;;;;;;;;;;;;;-0.59;83.24;101686.83;106015;1258;73860;-78
2023/12/04 08:28:12;;;;;;;;;;;;;;;-0.47;83.26;101686.32;105974;1253;66211;-77
2023/12/04 08:30:38;;;;;;;;;;;;;;;-0.35;83.08;101682.46;105950;1256;124623;-78
2023/12/04 08:33:06;;;;;;;;;;;;;;;-0.25;82.91;101682.69;106008;1256;61223;-77
2023/12/04 08:35:33;;;;;;;;;;;;;;;-0.14;82.79;101683.16;106652;1254;125022;-77
2023/12/04 08:37:59;;;;;;;;;;;;;;;-0.04;82.70;101687.81;106670;1254;74995;-76
2023/12/04 08:40:26;;;;;;;;;;;;;;;0.07;82.75;101683.67;106634;1254;63817;-77
2023/12/04 08:42:53;;;;;;;;;;;;;;;0.22;82.77;101682.64;106583;1256;124800;-77
2023/12/04 08:45:19;;;;;;;;;;;;;;;0.32;82.53;101678.30;106556;1254;61286;-76
2023/12/04 08:47:46;;;;;;;;;;;;;;;0.36;82.20;101679.14;106205;1260;126041;-78
2023/12/04 08:50:13;;;;;;;;;;;;;;;0.39;82.12;101680.94;106694;1256;75408;-77
2023/12/04 08:52:41;;;;;;;;;;;;;;;0.45;81.98;101677.95;106460;1255;124701;-77
2023/12/04 08:55:08;;;;;;;;;;;;;;;0.52;81.99;101685.10;106534;1255;71268;-78
2023/12/04 08:57:34;;;;;;;;;;;;;;;0.58;81.79;101685.08;106618;1260;61248;-77
2023/12/04 09:00:03;;;;;;;;;;;;;;;0.63;81.77;101688.91;105938;1254;123949;-76
2023/12/04 09:02:31;;;;;;;;;;;;;;;0.69;81.81;101693.70;105903;1255;73448;-77
2023/12/04 09:04:58;;;;;;;;;;;;;;;0.72;81.56;101696.89;105986;1260;124780;-77
2023/12/04 09:07:25;;;;;;;;;;;;;;;0.76;81.56;101699.28;106146;1253;72608;-76
2023/12/04 09:09:52;;;;;;;;;;;;;;;0.79;81.34;101696.25;106198;1255;63121;-76
2023/12/04 09:12:19;;;;;;;;;;;;;;;0.78;81.44;101697.00;106128;1253;123998;-76
2023/12/04 09:14:46;;;;;;;;;;;;;;;0.81;81.47;101699.78;106051;1254;74378;-77
2023/12/04 09:17:13;;;;;;;;;;;;;;;0.83;81.25;101698.95;106111;1257;125057;-79
2023/12/04 09:19:39;;;;;;;;;;;;;;;0.86;81.29;101697.09;106765;1259;70349;-77
2023/12/04 09:22:06;;;;;;;;;;;;;;;0.92;81.27;101695.21;106811;1253;59668;-77
2023/12/04 09:24:33;;;;;;;;;;;;;;;0.99;81.32;101688.44;106074;1256;124423;-77
2023/12/04 09:27:00;;;;;;;;;;;;;;;1.06;81.37;101690.39;106130;1254;73286;-78
2023/12/04 09:29:27;;;;;;;;;;;;;;;1.16;81.27;101688.73;106095;1254;124820;-77
2023/12/04 09:31:53;;;;;;;;;;;;;;;1.18;80.99;101687.70;106116;1254;71379;-78
2023/12/04 09:34:20;;;;;;;;;;;;;;;1.20;80.98;101687.14;106293;1253;61317;-77
2023/12/04 09:36:48;;;;;;;;;;;;;;;1.25;81.09;101691.52;105975;1257;124481;-77
2023/12/04 09:39:14;;;;;;;;;;;;;;;1.30;80.99;101692.63;106295;1253;74435;-77
2023/12/04 09:41:42;;;;;;;;;;;;;;;1.35;80.83;101697.29;106773;1257;124807;-78
2023/12/04 09:44:08;;;;;;;;;;;;;;;1.35;80.70;101700.27;106787;1253;72390;-77
2023/12/04 09:46:35;;;;;;;;;;;;;;;1.35;80.67;101702.18;106799;1258;61376;-77
2023/12/04 09:49:22;;;;;;;;;;;;;;;1.33;80.43;101701.45;106747;1254;61179;-77
2023/12/04 09:51:49;;;;;;;;;;;;;;;1.25;80.20;101701.67;106819;1257;73367;-78
2023/12/04 09:54:16;;;;;;;;;;;;;;;1.13;79.97;101698.52;106637;1254;124710;-78
2023/12/04 09:56:43;;;;;;;;;;;;;;;0.99;79.86;101702.48;106667;1256;72731;-78
2023/12/04 09:59:10;;;;;;;;;;;;;;;0.87;79.86;101703.63;106761;1254;124566;-77
2023/12/04 10:01:36;;;;;;;;;;;;;;;0.78;79.88;101699.25;106775;1254;61250;-77
2023/12/04 10:04:06;;;;;;;;;;;;;;;0.75;80.22;101696.77;106746;1254;73448;-76
2023/12/04 10:06:33;;;;;;;;;;;;;;;0.79;80.49;101693.98;105827;1257;124005;-78
2023/12/04 10:08:59;;;;;;;;;;;;;;;0.84;80.50;101691.77;106470;1260;72718;-76
2023/12/04 10:11:26;;;;;;;;;;;;;;;0.85;80.43;101685.42;105771;1256;124027;-76
2023/12/04 10:13:54;;;;;;;;;;;;;;;0.81;80.32;101680.86;106058;1260;61194;-77
2023/12/04 10:16:34;;;;;;;;;;;;;;;0.74;80.09;101679.63;108005;1255;74636;-77
2023/12/04 10:19:17;;;;;;;;;;;;;;;0.67;79.95;101684.41;106115;1254;123715;-76
2023/12/04 10:21:47;;;;;;;;;;;;;;;0.62;80.01;101686.52;106310;1254;73364;-77
2023/12/04 10:24:35;;;;;;;;;;;;;;;0.57;79.85;101678.73;105939;1254;124975;-78
2023/12/04 10:27:04;;;;;;;;;;;;;;;0.53;80.07;101683.63;106112;1259;61263;-78
2023/12/04 10:29:41;;;;;;;;;;;;;;;0.52;80.22;101683.54;106697;1257;124413;-77
2023/12/04 10:32:09;;;;;;;;;;;;;;;0.61;80.51;101686.84;106729;1254;66248;-77
2023/12/04 10:34:35;;;;;;;;;;;;;;;0.85;80.80;101684.74;106903;1254;71349;-78
2023/12/04 10:37:03;;;;;;;;;;;;;;;1.09;80.97;101681.45;106759;1254;125160;-77
2023/12/04 10:39:29;;;;;;;;;;;;;;;1.37;80.99;101684.01;106079;1259;61314;-77
2023/12/04 10:42:02;;;;;;;;;;;;;;;1.64;81.01;101681.56;106028;1259;124698;-77
2023/12/04 10:44:32;;;;;;;;;;;;;;;1.88;80.57;101683.16;106227;1257;65598;-77
2023/12/04 10:47:00;;;;;;;;;;;;;;;2.04;80.29;101675.71;106058;1254;124882;-77
2023/12/04 10:49:28;;;;;;;;;;;;;;;2.15;80.02;101669.19;106930;1253;61355;-78
2023/12/04 10:51:56;;;;;;;;;;;;;;;2.23;79.68;101669.80;106888;1257;59289;-78
2023/12/04 10:54:23;;;;;;;;;;;;;;;2.20;79.05;101669.71;106658;1254;124600;-78
2023/12/04 10:56:51;;;;;;;;;;;;;;;2.10;78.77;101671.98;106880;1254;64992;-77
2023/12/04 10:59:18;;;;;;;;;;;;;;;2.02;78.78;101670.31;106727;1254;124923;-78
2023/12/04 11:01:45;;;;;;;;;;;;;;;1.98;78.50;101671.23;106812;1254;61343;-78
2023/12/04 11:04:13;;;;;;;;;;;;;;;1.95;78.50;101675.34;106790;1256;61234;-78
2023/12/04 11:06:40;;;;;;;;;;;;;;;1.96;78.70;101671.59;106769;1258;124533;-78
2023/12/04 11:09:06;;;;;;;;;;;;;;;1.99;78.54;101671.52;106815;1258;66375;-78
2023/12/04 11:11:36;;;;;;;;;;;;;;;2.00;78.56;101675.21;106724;1253;124544;-77
2023/12/04 11:14:04;;;;;;;;;;;;;;;2.00;78.45;101673.63;106879;1257;61256;-77
2023/12/04 11:16:35;;;;;;;;;;;;;;;1.97;78.34;101668.90;106835;1253;61211;-78
2023/12/04 11:19:21;;;;;;;;;;;;;;;1.95;78.20;101666.16;106635;1258;123809;-78
2023/12/04 11:21:48;;;;;;;;;;;;;;;1.90;78.15;101665.16;106793;1254;64958;-78
2023/12/04 11:24:14;;;;;;;;;;;;;;;1.87;78.07;101671.61;106660;1254;124101;-77
2023/12/04 11:26:41;;;;;;;;;;;;;;;1.81;77.80;101668.41;106843;1255;61282;-77
2023/12/04 11:29:09;;;;;;;;;;;;;;;1.71;77.90;101666.80;106550;1254;124336;-77
2023/12/04 11:31:36;;;;;;;;;;;;;;;1.64;77.79;101665.80;106153;1254;74697;-77
2023/12/04 11:34:03;;;;;;;;;;;;;;;1.58;77.70;101666.90;106069;1259;67171;-78
2023/12/04 11:36:29;;;;;;;;;;;;;;;1.48;77.83;101665.79;106661;1254;123844;-78
2023/12/04 11:38:56;;;;;;;;;;;;;;;1.41;77.71;101669.55;106841;1254;61278;-78
2023/12/04 11:41:23;;;;;;;;;;;;;;;1.32;77.78;101667.02;106647;1254;125056;-78
2023/12/04 11:43:51;;;;;;;;;;;;;;;1.27;78.06;101669.91;106811;1254;74431;-78
2023/12/04 11:46:23;;;;;;;;;;;;;;;1.25;78.09;101674.56;106918;1254;66219;-78
2023/12/04 11:48:50;;;;;;;;;;;;;;;1.20;78.02;101677.66;106675;1254;124563;-78
2023/12/04 11:51:35;;;;;;;;;;;;;;;1.14;78.06;101675.11;106813;1254;61359;-78
2023/12/04 11:54:04;;;;;;;;;;;;;;;1.09;78.03;101676.48;106796;1254;124782;-78
2023/12/04 11:56:31;;;;;;;;;;;;;;;1.01;78.01;101672.73;106865;1258;73345;-78
2023/12/04 11:59:04;;;;;;;;;;;;;;;0.97;78.23;101671.55;106813;1254;124834;-78
2023/12/04 12:01:35;;;;;;;;;;;;;;;0.93;78.16;101674.16;106815;1253;72711;-78
2023/12/04 12:04:05;;;;;;;;;;;;;;;0.90;78.24;101675.01;106866;1258;61321;-78
2023/12/04 12:06:32;;;;;;;;;;;;;;;0.91;78.39;101673.30;106616;1254;125389;-78
2023/12/04 12:08:59;;;;;;;;;;;;;;;0.93;78.43;101673.46;106778;1254;73668;-78
2023/12/04 12:11:26;;;;;;;;;;;;;;;0.92;78.39;101667.68;106732;1253;125249;-78
2023/12/04 12:13:53;;;;;;;;;;;;;;;0.91;78.40;101665.75;106842;1254;72537;-78
2023/12/04 12:16:19;;;;;;;;;;;;;;;0.89;78.33;101665.08;106754;1259;61144;-78
2023/12/04 12:18:46;;;;;;;;;;;;;;;0.88;78.29;101660.68;106680;1255;124953;-78
2023/12/04 12:21:13;;;;;;;;;;;;;;;0.88;78.28;101665.27;106777;1254;73542;-78
2023/12/04 12:23:40;;;;;;;;;;;;;;;0.88;78.20;101661.16;106613;1259;125120;-77
2023/12/04 12:26:06;;;;;;;;;;;;;;;0.89;78.27;101665.02;106737;1256;71388;-76